Time;durP1;ratioP1;P1;durP2;ratioP2;P2;SDS_P1;SDS_P2;PMS_P1;PMS_P2;Temp;Humidity;BMP_temperature;BMP_pressure;BME280_temperature;BME280_humidity;BME280_pressure;Samples;Min_cycle;Max_cycle;Signal;HPM_P1;HPM_P2
2022/12/10 00:02:02;;;;;;;76.38;31.42;;;;;;;3.38;68.39;97931.59;5132786;28;20059;-84
2022/12/10 00:04:52;;;;;;;59.30;25.58;;;;;;;3.27;68.54;97911.50;5131636;28;20524;-84
2022/12/10 00:07:42;;;;;;;62.47;27.25;;;;;;;3.13;68.43;97890.84;5156999;28;20551;-84
2022/12/10 00:10:33;;;;;;;55.55;25.73;;;;;;;3.28;68.66;97914.00;5165774;28;20042;-84
2022/12/10 00:13:23;;;;;;;55.05;24.58;;;;;;;3.14;68.32;97903.78;5130070;28;20655;-84
2022/12/10 00:16:14;;;;;;;58.28;25.80;;;;;;;3.28;68.52;97934.97;5156877;28;21029;-84
2022/12/10 00:19:05;;;;;;;55.70;25.25;;;;;;;3.18;68.37;97909.63;5134515;28;20054;-83
2022/12/10 00:21:55;;;;;;;55.92;25.70;;;;;;;3.28;67.73;97919.25;5144615;28;20807;-84
2022/12/10 00:24:46;;;;;;;56.70;25.17;;;;;;;3.21;67.97;97914.63;5155503;28;20041;-83
2022/12/10 00:27:36;;;;;;;56.35;24.90;;;;;;;3.12;68.51;97905.72;5161101;28;20102;-84
2022/12/10 00:30:27;;;;;;;51.55;24.75;;;;;;;3.05;68.39;97905.38;5135854;28;20077;-84
2022/12/10 00:33:17;;;;;;;53.65;24.05;;;;;;;3.18;68.09;97927.94;5144588;28;20054;-84
2022/12/10 00:36:14;;;;;;;56.20;24.75;;;;;;;3.32;67.80;97926.88;5126652;28;20608;-84
2022/12/10 00:39:04;;;;;;;50.72;23.30;;;;;;;3.25;68.42;97919.50;5152343;28;20053;-84
2022/12/10 00:41:55;;;;;;;52.25;23.83;;;;;;;3.18;68.37;97915.72;5138306;28;20054;-84
2022/12/10 00:44:45;;;;;;;50.55;23.90;;;;;;;2.92;68.54;97875.91;5128536;28;20066;-84
2022/12/10 00:47:35;;;;;;;53.83;24.73;;;;;;;3.27;68.41;97925.44;5126046;28;20054;-84
2022/12/10 00:50:25;;;;;;;52.25;24.45;;;;;;;3.27;67.24;97930.66;5143892;28;20057;-84
2022/12/10 00:53:15;;;;;;;54.65;24.92;;;;;;;3.34;67.98;97932.78;5130775;28;20124;-85
2022/12/10 00:56:07;;;;;;;56.13;25.33;;;;;;;3.36;67.79;97938.75;5146745;28;20106;-84
2022/12/10 00:58:58;;;;;;;52.47;24.13;;;;;;;2.93;67.65;97897.69;5138046;28;20707;-84
2022/12/10 01:01:48;;;;;;;55.28;25.02;;;;;;;3.22;67.60;97929.41;5155814;28;20057;-84
2022/12/10 01:04:39;;;;;;;53.75;24.75;;;;;;;3.24;68.00;97941.38;5133598;28;20057;-84
2022/12/10 01:07:30;;;;;;;53.50;24.38;;;;;;;3.06;67.56;97921.94;5141073;28;20282;-84
2022/12/10 01:10:20;;;;;;;54.55;24.40;;;;;;;3.16;67.91;97954.28;5153338;28;20232;-83
2022/12/10 01:13:12;;;;;;;53.00;23.55;;;;;;;3.19;67.49;97954.03;5146415;28;20054;-84
2022/12/10 01:16:04;;;;;;;57.90;23.38;;;;;;;3.07;67.53;97949.78;5131036;28;20061;-83
2022/12/10 01:18:58;;;;;;;54.92;24.65;;;;;;;3.17;67.67;97976.91;5146224;28;20130;-83
2022/12/10 01:21:50;;;;;;;49.58;23.27;;;;;;;3.01;67.86;97950.25;5134014;28;20114;-83
2022/12/10 01:24:41;;;;;;;60.20;25.40;;;;;;;2.92;67.92;97936.13;5134701;28;20436;-84
2022/12/10 01:27:31;;;;;;;54.55;23.08;;;;;;;2.95;67.88;97935.06;5142121;28;20058;-83
2022/12/10 01:30:21;;;;;;;51.35;23.73;;;;;;;2.94;67.40;97938.63;5123079;28;20042;-84
2022/12/10 01:33:11;;;;;;;52.33;24.17;;;;;;;3.07;67.63;97955.00;5131908;28;20078;-84
2022/12/10 01:36:05;;;;;;;52.63;22.88;;;;;;;3.24;67.96;97993.78;5152264;28;20491;-83
2022/12/10 01:38:55;;;;;;;45.15;22.30;;;;;;;3.09;67.77;97962.75;5130631;28;20047;-83
2022/12/10 01:41:56;;;;;;;52.05;22.40;;;;;;;3.11;68.15;97972.13;5136225;28;20054;-83
2022/12/10 01:44:49;;;;;;;55.65;23.80;;;;;;;3.35;68.02;97992.13;5143646;28;20061;-83
2022/12/10 01:47:39;;;;;;;50.80;24.02;;;;;;;3.16;68.10;97977.84;5131417;28;20097;-84
2022/12/10 01:50:29;;;;;;;51.72;23.30;;;;;;;3.13;68.05;97988.56;5141620;28;20066;-83
2022/12/10 01:53:20;;;;;;;46.50;21.17;;;;;;;3.11;68.07;97981.78;5144698;28;20121;-84
2022/12/10 01:56:11;;;;;;;49.40;22.48;;;;;;;3.13;67.92;97978.09;5132703;28;20046;-84
2022/12/10 01:59:02;;;;;;;47.53;21.88;;;;;;;3.28;67.61;98002.25;5143642;28;20051;-84
2022/12/10 02:02:06;;;;;;;51.38;23.02;;;;;;;3.17;68.21;97992.63;5135435;28;20054;-84
2022/12/10 02:05:23;;;;;;;56.75;24.60;;;;;;;3.08;68.01;97974.16;5159104;28;20517;-84
2022/12/10 02:08:24;;;;;;;44.40;21.40;;;;;;;3.22;68.18;97998.34;5140584;28;20057;-84
2022/12/10 02:11:33;;;;;;;50.35;22.75;;;;;;;3.17;68.04;97979.50;5150612;28;20061;-84
2022/12/10 02:14:33;;;;;;;47.20;21.52;;;;;;;3.11;68.93;97972.13;5138902;28;20086;-84
2022/12/10 02:17:30;;;;;;;53.05;23.38;;;;;;;3.12;68.81;97973.81;5129764;28;20069;-82
2022/12/10 02:20:37;;;;;;;49.40;23.00;;;;;;;3.12;68.62;97973.81;5151592;28;20059;-83
2022/12/10 02:23:46;;;;;;;53.28;23.85;;;;;;;3.11;68.53;97961.66;5145606;28;20116;-84
2022/12/10 02:26:51;;;;;;;48.67;21.67;;;;;;;3.25;68.49;97990.22;5142060;28;20050;-83
2022/12/10 02:29:45;;;;;;;56.20;24.48;;;;;;;3.25;68.13;97987.59;5138117;28;20046;-82
2022/12/10 02:32:43;;;;;;;52.03;22.27;;;;;;;3.23;68.17;97971.16;5149092;28;20477;-83
2022/12/10 02:35:38;;;;;;;52.70;23.98;;;;;;;3.05;68.17;97951.69;5161763;28;20057;-82
2022/12/10 02:38:36;;;;;;;53.53;23.42;;;;;;;3.12;68.60;97970.38;5149503;28;20094;-83
2022/12/10 02:41:33;;;;;;;47.25;21.80;;;;;;;3.11;68.28;97980.00;5146377;28;20094;-82
2022/12/10 02:44:27;;;;;;;50.95;22.17;;;;;;;2.79;69.23;97966.84;5145787;28;20504;-83
2022/12/10 02:47:18;;;;;;;52.70;23.50;;;;;;;2.83;68.84;97957.78;5146898;28;20461;-83
2022/12/10 02:50:12;;;;;;;51.25;22.60;;;;;;;2.91;68.37;97970.28;5139963;28;20070;-83
2022/12/10 02:53:02;;;;;;;44.90;21.40;;;;;;;2.94;68.72;97981.34;5147680;28;20181;-83
2022/12/10 02:56:08;;;;;;;44.00;21.05;;;;;;;2.90;68.78;97968.63;5133026;28;20102;-83
2022/12/10 02:59:26;;;;;;;48.45;21.25;;;;;;;2.96;68.18;97968.97;5134661;28;20057;-81
2022/12/10 03:02:29;;;;;;;53.20;22.60;;;;;;;2.92;68.68;97971.97;5150282;28;20050;-82
2022/12/10 03:05:32;;;;;;;49.75;21.55;;;;;;;2.85;68.20;97949.81;5163934;28;20301;-83
2022/12/10 03:08:28;;;;;;;46.13;21.20;;;;;;;2.70;68.61;97936.16;5156285;28;20078;-82
2022/12/10 03:11:21;;;;;;;49.38;22.67;;;;;;;2.64;68.58;97913.06;5150179;28;20566;-83
2022/12/10 03:14:21;;;;;;;46.60;21.13;;;;;;;2.77;68.11;97938.16;5136074;28;20054;-83
2022/12/10 03:17:14;;;;;;;45.60;21.73;;;;;;;2.74;68.03;97948.03;5122933;28;20057;-83
2022/12/10 03:20:08;;;;;;;47.50;22.52;;;;;;;2.37;67.80;97890.72;5152044;28;20049;-83
2022/12/10 03:23:00;;;;;;;47.97;21.88;;;;;;;2.34;68.42;97904.03;5150288;28;20050;-82
2022/12/10 03:25:50;;;;;;;51.40;21.27;;;;;;;2.55;68.78;97952.09;5150070;28;20077;-83
2022/12/10 03:28:50;;;;;;;44.70;19.85;;;;;;;2.31;68.36;97936.50;5147420;28;20499;-83
2022/12/10 03:31:41;;;;;;;42.72;20.17;;;;;;;2.42;68.98;97968.84;5140556;28;20058;-84
2022/12/10 03:34:33;;;;;;;45.65;20.98;;;;;;;2.31;68.53;97951.38;5141731;28;20505;-83
2022/12/10 03:37:25;;;;;;;46.33;21.42;;;;;;;1.99;69.34;97894.53;5156275;28;20047;-82
2022/12/10 03:40:19;;;;;;;55.10;23.70;;;;;;;2.46;69.18;97967.69;5152258;28;20050;-83
2022/12/10 03:43:13;;;;;;;48.78;22.55;;;;;;;2.24;69.31;97930.06;5146355;28;20053;-82
2022/12/10 03:46:03;;;;;;;53.20;22.77;;;;;;;2.34;69.58;97938.88;5132426;28;20062;-83
2022/12/10 03:48:58;;;;;;;52.42;22.42;;;;;;;2.06;69.84;97906.19;5130236;28;20125;-82
2022/12/10 03:51:47;;;;;;;;;;;;;;;2.18;69.57;97940.19;5151589;28;20092;-82
2022/12/10 03:54:38;;;;;;;57.15;23.60;;;;;;;2.16;70.12;97929.84;5121536;28;19935;-82
2022/12/10 03:57:28;;;;;;;57.95;24.85;;;;;;;2.07;69.75;97922.69;5134332;28;20054;-83
2022/12/10 04:00:18;;;;;;;59.55;23.20;;;;;;;2.27;69.04;97956.00;5144386;28;20047;-83
2022/12/10 04:03:08;;;;;;;55.35;24.02;;;;;;;2.17;68.92;97959.44;5142870;28;20052;-83
2022/12/10 04:06:10;;;;;;;58.80;24.20;;;;;;;2.33;69.40;97993.94;5141866;28;20116;-82
2022/12/10 04:09:00;;;;;;;54.13;24.33;;;;;;;2.19;69.50;97979.31;5132322;28;20053;-83
2022/12/10 04:11:55;;;;;;;55.28;23.45;;;;;;;2.04;69.64;97949.06;5138861;28;20621;-83
2022/12/10 04:17:54;;;;;;;55.05;23.83;;;;;;;2.11;69.62;97955.50;5140179;28;20057;-83
2022/12/10 04:27:07;;;;;;;54.95;23.88;;;;;;;2.51;69.27;97996.94;5141305;28;20124;-83
2022/12/10 04:29:59;;;;;;;54.15;23.63;;;;;;;2.30;69.41;97966.22;5126058;28;20050;-83
2022/12/10 04:32:49;;;;;;;59.40;24.05;;;;;;;2.39;69.65;97979.56;5143482;28;20049;-83
2022/12/10 04:35:39;;;;;;;59.38;26.00;;;;;;;2.24;69.48;97965.88;5134188;28;20061;-82
2022/12/10 04:38:29;;;;;;;61.75;25.17;;;;;;;2.13;71.38;97990.22;5130483;28;20062;-82
2022/12/10 04:41:19;;;;;;;62.53;25.98;;;;;;;2.12;69.97;97978.09;5135513;28;20062;-82
2022/12/10 04:44:10;;;;;;;66.45;26.80;;;;;;;2.35;70.42;97994.66;5146609;28;20042;-82
2022/12/10 04:47:01;;;;;;;58.80;24.35;;;;;;;2.23;70.36;97982.53;5142422;28;20144;-82
2022/12/10 04:49:51;;;;;;;63.47;26.55;;;;;;;2.25;70.21;97997.16;5150483;28;20049;-83
2022/12/10 04:52:41;;;;;;;58.95;26.40;;;;;;;1.99;70.32;97972.13;5143589;28;20041;-83
2022/12/10 04:55:31;;;;;;;56.88;25.48;;;;;;;2.21;69.52;97974.78;5148305;28;20051;-83
2022/12/10 04:58:21;;;;;;;63.53;26.48;;;;;;;2.39;70.01;98006.56;5141836;28;20051;-83
2022/12/10 05:01:12;;;;;;;65.10;26.92;;;;;;;2.38;70.12;98017.13;5114406;28;20094;-82
2022/12/10 05:04:06;;;;;;;60.38;25.73;;;;;;;2.10;69.76;97966.91;5144265;28;20057;-84
2022/12/10 05:06:56;;;;;;;62.63;26.40;;;;;;;2.29;69.95;97989.91;5135030;28;20046;-83
2022/12/10 05:09:48;;;;;;;60.50;24.95;;;;;;;2.28;69.48;97973.34;5119381;28;20053;-83
2022/12/10 05:12:38;;;;;;;57.50;26.73;;;;;;;2.41;68.98;98006.44;5135623;28;20166;-83
2022/12/10 05:15:28;;;;;;;58.03;25.42;;;;;;;2.55;69.38;98025.38;5154535;28;20109;-83
2022/12/10 05:18:18;;;;;;;54.42;25.20;;;;;;;2.55;68.93;98004.44;5133372;28;20105;-82
2022/12/10 05:21:12;;;;;;;59.38;25.48;;;;;;;2.41;69.34;97988.94;5134166;28;20352;-82
2022/12/10 05:24:02;;;;;;;57.38;24.88;;;;;;;2.59;69.10;98016.34;5146727;28;20426;-83
2022/12/10 05:26:52;;;;;;;61.72;26.33;;;;;;;2.46;69.39;98014.78;5137724;28;20074;-83
2022/12/10 05:29:42;;;;;;;59.63;24.85;;;;;;;2.37;69.26;97992.75;5145094;28;20567;-82
2022/12/10 05:32:33;;;;;;;59.17;24.90;;;;;;;2.28;69.84;97991.66;5128200;28;20458;-84
2022/12/10 05:35:23;;;;;;;56.60;25.60;;;;;;;2.40;70.08;98002.16;5145625;28;20078;-83
2022/12/10 05:38:13;;;;;;;54.55;24.90;;;;;;;2.55;69.87;98012.28;5126193;28;20139;-83
2022/12/10 05:41:05;;;;;;;57.42;24.35;;;;;;;2.53;69.46;98015.97;5130062;28;20066;-82
2022/12/10 05:43:57;;;;;;;61.08;26.45;;;;;;;2.51;69.59;98020.47;5140277;28;20094;-82
2022/12/10 05:46:47;;;;;;;58.53;26.58;;;;;;;2.44;69.70;98004.41;5133443;28;20054;-82
2022/12/10 05:49:37;;;;;;;58.85;25.80;;;;;;;2.49;69.93;98027.63;5142884;28;20057;-82
2022/12/10 05:52:27;;;;;;;55.13;24.52;;;;;;;2.44;69.14;98014.06;5150529;28;20414;-83
2022/12/10 05:55:18;;;;;;;64.53;25.42;;;;;;;2.29;69.19;97990.72;5142387;28;20057;-83
2022/12/10 05:58:08;;;;;;;65.30;26.95;;;;;;;2.31;69.66;98017.59;5133068;28;20412;-82
2022/12/10 06:00:58;;;;;;;61.30;25.23;;;;;;;2.21;69.08;98023.63;5129879;28;20059;-82
2022/12/10 06:03:52;;;;;;;59.17;24.38;;;;;;;2.38;69.33;98046.72;5151345;28;20057;-81
2022/12/10 06:06:42;;;;;;;54.28;25.08;;;;;;;2.18;69.46;97992.47;5137994;28;20106;-82
2022/12/10 06:09:32;;;;;;;54.47;24.25;;;;;;;2.42;69.08;98039.47;5137621;28;20461;-83
2022/12/10 06:12:22;;;;;;;58.35;25.58;;;;;;;2.45;69.31;98034.03;5139380;28;20117;-82
2022/12/10 06:15:13;;;;;;;57.95;23.60;;;;;;;1.99;69.04;97988.66;5139103;28;20113;-83
2022/12/10 06:18:03;;;;;;;53.33;24.35;;;;;;;2.28;69.37;98030.91;5137238;28;20051;-82
2022/12/10 06:20:53;;;;;;;63.58;25.90;;;;;;;2.35;69.03;98021.66;5153052;28;20051;-82
2022/12/10 06:23:44;;;;;;;60.83;25.38;;;;;;;2.34;69.67;98025.19;5155653;28;20057;-82
2022/12/10 06:26:34;;;;;;;58.70;24.98;;;;;;;2.49;68.91;98043.34;5129114;28;20062;-82
2022/12/10 06:29:24;;;;;;;58.30;25.85;;;;;;;2.42;68.63;98031.63;5138993;28;20113;-83
2022/12/10 06:32:14;;;;;;;62.00;26.25;;;;;;;2.59;68.34;98052.97;5120030;28;20240;-82
2022/12/10 06:35:05;;;;;;;55.53;23.73;;;;;;;2.51;68.64;98038.78;5121725;28;20051;-83
2022/12/10 06:37:55;;;;;;;57.42;24.90;;;;;;;2.47;68.60;98050.44;5120070;28;20065;-82
2022/12/10 06:40:45;;;;;;;57.15;25.90;;;;;;;2.30;68.86;98030.78;5142825;28;20509;-82
2022/12/10 06:43:36;;;;;;;60.47;26.30;;;;;;;2.37;70.09;98071.25;5136929;28;20051;-82
2022/12/10 06:46:29;;;;;;;60.50;26.05;;;;;;;2.29;69.29;98047.44;5130671;28;20429;-82
2022/12/10 06:49:19;;;;;;;56.92;24.98;;;;;;;2.30;68.70;98064.81;5129975;28;20125;-83
2022/12/10 06:52:10;;;;;;;60.20;25.60;;;;;;;2.57;68.79;98077.59;5129016;28;20134;-82
2022/12/10 06:55:00;;;;;;;60.85;26.65;;;;;;;2.47;68.65;98060.91;5131068;28;20800;-82
2022/12/10 06:57:52;;;;;;;64.65;28.17;;;;;;;2.28;68.23;98038.75;5125216;28;20062;-81
2022/12/10 07:00:42;;;;;;;55.00;25.45;;;;;;;2.45;68.29;98068.03;5146574;28;20442;-83
2022/12/10 07:03:33;;;;;;;61.30;27.63;;;;;;;2.33;68.20;98026.16;5140591;28;20062;-82
2022/12/10 07:06:24;;;;;;;54.67;24.75;;;;;;;2.51;68.22;98064.97;5139754;28;20074;-83
2022/12/10 07:09:15;;;;;;;58.17;25.33;;;;;;;2.62;68.57;98082.50;5120587;28;20053;-83
2022/12/10 07:12:05;;;;;;;56.50;24.27;;;;;;;2.53;68.04;98066.53;5134357;28;20150;-83
2022/12/10 07:14:56;;;;;;;56.97;25.13;;;;;;;2.39;68.44;98040.56;5140053;28;20042;-83
2022/12/10 07:17:45;;;;;;;58.90;25.40;;;;;;;2.54;68.51;98075.19;5149210;28;20055;-82
2022/12/10 07:20:36;;;;;;;59.58;25.50;;;;;;;2.50;68.19;98066.75;5124937;28;20059;-83
2022/12/10 07:23:26;;;;;;;57.85;25.20;;;;;;;2.44;68.78;98084.69;5129140;28;20051;-83
2022/12/10 07:26:16;;;;;;;65.28;24.92;;;;;;;2.37;67.46;98076.47;5148314;28;20050;-83
2022/12/10 07:29:13;;;;;;;61.78;26.73;;;;;;;2.50;67.65;98087.69;5125334;28;20054;-84
2022/12/10 07:32:18;;;;;;;57.63;25.13;;;;;;;2.56;67.78;98107.31;5130961;28;20082;-83
2022/12/10 07:35:08;;;;;;;56.10;24.45;;;;;;;2.55;68.56;98097.78;5133465;28;20662;-84
2022/12/10 07:37:59;;;;;;;54.97;25.13;;;;;;;2.41;67.93;98096.22;5128411;28;20113;-84
2022/12/10 07:40:50;;;;;;;57.35;24.80;;;;;;;2.52;68.72;98116.38;5130873;28;20496;-84
2022/12/10 07:43:42;;;;;;;62.05;26.65;;;;;;;2.47;68.48;98080.06;5143370;28;20097;-86
2022/12/10 07:46:33;;;;;;;66.75;27.67;;;;;;;2.29;68.03;98063.16;5129478;28;20154;-83
2022/12/10 07:49:23;;;;;;;61.10;25.73;;;;;;;2.44;68.52;98076.84;5144665;28;20087;-83
2022/12/10 07:52:13;;;;;;;60.65;26.35;;;;;;;2.62;68.39;98099.03;5142354;28;20109;-84
2022/12/10 07:55:04;;;;;;;61.65;26.90;;;;;;;2.62;67.53;98124.38;5119234;28;20145;-84
2022/12/10 07:57:56;;;;;;;57.63;25.17;;;;;;;2.15;67.75;98031.94;5142105;28;20081;-82
2022/12/10 08:04:39;;;;;;;56.90;25.30;;;;;;;2.64;68.00;98102.34;5142015;28;20051;-84
2022/12/10 08:07:30;;;;;;;59.50;27.17;;;;;;;2.74;67.93;98142.56;5140093;28;20059;-84
2022/12/10 08:10:20;;;;;;;60.60;26.33;;;;;;;2.72;66.79;98113.06;5147679;28;20054;-85
2022/12/10 08:13:10;;;;;;;62.83;26.65;;;;;;;2.43;68.20;98093.50;5129914;28;20057;-87
2022/12/10 08:16:03;;;;;;;61.75;27.42;;;;;;;2.53;67.60;98113.63;5131679;28;20069;-83
2022/12/10 08:18:56;;;;;;;62.75;26.40;;;;;;;2.72;67.54;98136.63;5122538;28;20496;-85
2022/12/10 08:21:46;;;;;;;45.55;19.80;;;;;;;2.86;67.01;98147.84;5117029;28;20062;-84
2022/12/10 08:24:38;;;;;;;60.17;26.58;;;;;;;2.41;66.41;98079.69;5125395;28;20110;-84
2022/12/10 08:27:29;;;;;;;57.88;25.85;;;;;;;2.77;67.56;98149.38;5120561;28;20141;-84
2022/12/10 08:30:19;;;;;;;57.55;26.13;;;;;;;2.82;67.13;98145.47;5109605;28;20091;-84
2022/12/10 08:33:09;;;;;;;55.38;24.65;;;;;;;3.05;66.89;98155.97;5121968;28;20073;-83
2022/12/10 08:36:00;;;;;;;63.17;26.80;;;;;;;2.89;66.80;98129.28;5111428;28;20057;-84
2022/12/10 08:38:52;;;;;;;57.65;25.35;;;;;;;3.17;66.64;98139.31;5125284;28;20165;-85
2022/12/10 08:41:46;;;;;;;63.70;26.70;;;;;;;2.95;66.94;98127.03;5127661;28;20058;-86
2022/12/10 08:44:36;;;;;;;;;;;;;;;3.24;65.90;98148.34;5118908;28;20062;-85
2022/12/10 08:47:27;;;;;;;54.28;24.20;;;;;;;2.82;66.39;98103.56;5124859;28;20289;-85
2022/12/10 08:50:17;;;;;;;65.00;27.90;;;;;;;3.17;65.96;98139.31;5127765;28;20708;-86
2022/12/10 08:53:07;;;;;;;61.97;26.00;;;;;;;3.03;65.61;98097.63;5123724;28;20240;-85
2022/12/10 08:55:57;;;;;;;59.00;25.35;;;;;;;3.14;66.06;98123.81;5138307;28;20491;-86
2022/12/10 08:58:48;;;;;;;61.28;25.83;;;;;;;3.12;65.48;98115.25;5121326;28;20051;-85
2022/12/10 09:01:38;;;;;;;59.08;25.27;;;;;;;3.25;65.42;98130.88;5112896;28;20114;-85
2022/12/10 09:04:29;;;;;;;55.42;26.10;;;;;;;2.88;66.25;98076.09;5125078;28;20046;-85
2022/12/10 09:07:19;;;;;;;61.42;24.52;;;;;;;3.43;66.00;98145.16;5127499;28;20078;-83
2022/12/10 09:10:11;;;;;;;48.65;23.50;;;;;;;3.46;65.43;98165.03;5122155;28;20051;-85
2022/12/10 09:13:02;;;;;;;56.33;24.88;;;;;;;3.11;65.60;98139.75;5125545;28;20138;-86
2022/12/10 09:15:52;;;;;;;55.13;24.10;;;;;;;3.19;66.16;98155.75;5122104;28;20122;-85
2022/12/10 09:18:43;;;;;;;57.58;24.13;;;;;;;3.14;65.76;98144.78;5129885;28;20093;-87
2022/12/10 09:21:35;;;;;;;55.80;24.83;;;;;;;3.42;65.73;98150.53;5131955;28;20050;-86
2022/12/10 09:24:26;;;;;;;58.17;24.60;;;;;;;3.56;65.08;98155.50;5115665;28;20065;-85
2022/12/10 09:27:16;;;;;;;53.13;22.75;;;;;;;3.17;65.09;98096.56;5124678;28;20630;-85
2022/12/10 09:30:07;;;;;;;58.97;24.35;;;;;;;3.65;64.92;98170.53;5127854;28;20050;-84
2022/12/10 09:32:58;;;;;;;52.83;24.50;;;;;;;3.56;64.47;98155.50;5146509;28;20106;-84
2022/12/10 09:35:48;;;;;;;56.72;23.92;;;;;;;3.61;64.75;98166.47;5138145;28;20039;-87
2022/12/10 09:38:40;;;;;;;56.58;24.83;;;;;;;3.50;64.48;98129.78;5135191;28;20081;-83
2022/12/10 09:42:01;;;;;;;58.17;24.90;;;;;;;3.44;64.91;98154.66;5157443;28;20086;-84
2022/12/10 09:44:57;;;;;;;53.63;24.60;;;;;;;3.81;64.68;98185.88;5157000;28;20030;-86
2022/12/10 09:48:15;;;;;;;50.97;23.73;;;;;;;3.58;65.51;98189.47;5132789;23;20047;-72
2022/12/10 09:51:18;;;;;;;54.15;23.55;;;;;;;3.80;63.83;98199.09;5085913;29;20130;-71
2022/12/10 09:54:19;;;;;;;52.35;22.88;;;;;;;3.79;64.58;98192.19;5084009;29;20133;-73
2022/12/10 09:57:24;;;;;;;56.00;24.75;;;;;;;3.74;63.65;98177.66;5082029;29;20104;-70
2022/12/10 10:00:36;;;;;;;55.38;24.83;;;;;;;3.87;64.47;98197.66;5082775;29;20066;-71
2022/12/10 10:03:27;;;;;;;54.58;24.08;;;;;;;3.52;63.98;98189.00;5081020;29;20075;-73
2022/12/10 10:06:17;;;;;;;48.42;22.88;;;;;;;3.75;64.75;98192.44;5086461;29;20059;-71
2022/12/10 10:09:14;;;;;;;51.83;22.23;;;;;;;3.65;63.46;98180.19;5085384;29;20158;-72
2022/12/10 10:12:13;;;;;;;51.55;23.88;;;;;;;3.74;63.12;98190.78;5067459;29;20082;-72
2022/12/10 10:15:16;;;;;;;54.47;24.40;;;;;;;4.22;63.54;98200.09;5072655;29;20091;-72
2022/12/10 10:18:17;;;;;;;51.92;23.38;;;;;;;4.25;64.16;98186.75;5078985;29;20131;-71
2022/12/10 10:21:21;;;;;;;49.95;23.77;;;;;;;3.25;65.12;98199.81;5079915;29;20564;-70
2022/12/10 10:24:25;;;;;;;49.38;23.60;;;;;;;3.50;65.11;98190.06;5079334;29;20052;-70
2022/12/10 10:27:19;;;;;;;50.50;23.58;;;;;;;3.81;64.26;98198.13;5082720;29;20107;-70
2022/12/10 10:30:21;;;;;;;49.22;23.45;;;;;;;3.93;62.97;98186.69;5083643;29;20142;-70
2022/12/10 10:33:14;;;;;;;53.83;24.33;;;;;;;3.87;62.66;98181.91;5086088;29;20422;-70
2022/12/10 10:36:05;;;;;;;51.38;23.33;;;;;;;3.90;63.95;98160.69;5087073;29;20127;-69
2022/12/10 10:39:16;;;;;;;53.65;23.92;;;;;;;4.31;62.98;98188.03;5084551;29;20052;-73
2022/12/10 10:42:10;;;;;;;50.22;22.20;;;;;;;3.33;64.40;98185.28;5078930;29;20056;-72
2022/12/10 10:45:02;;;;;;;57.38;28.35;;;;;;;3.73;63.01;98183.00;5082057;29;20044;-69
2022/12/10 10:48:16;;;;;;;55.88;27.05;;;;;;;3.94;63.96;98189.19;5081122;29;20135;-67
2022/12/10 10:51:11;;;;;;;47.90;21.83;;;;;;;3.81;63.99;98174.53;5072916;29;20500;-70
2022/12/10 10:54:02;;;;;;;49.40;21.92;;;;;;;4.05;63.49;98182.25;5077826;29;20565;-69
2022/12/10 10:57:00;;;;;;;50.17;24.88;;;;;;;3.86;63.22;98185.50;5083907;29;20507;-73
2022/12/10 10:59:53;;;;;;;41.17;20.35;;;;;;;4.10;62.70;98175.66;5081395;29;20518;-69
2022/12/10 11:02:44;;;;;;;41.28;20.25;;;;;;;3.35;63.27;98183.41;5085796;29;20492;-70
2022/12/10 11:05:35;;;;;;;44.80;20.83;;;;;;;3.01;65.63;98191.19;5085017;29;20173;-69
2022/12/10 11:08:30;;;;;;;43.55;20.27;;;;;;;3.79;63.59;98195.66;5085222;29;20055;-72
2022/12/10 11:11:30;;;;;;;42.58;20.17;;;;;;;3.20;64.04;98177.53;5095178;29;20426;-70
2022/12/10 11:14:24;;;;;;;42.63;20.08;;;;;;;3.27;65.54;98197.91;5093249;29;20059;-70
2022/12/10 11:17:14;;;;;;;;;;;;;;;4.08;62.59;98193.34;5074582;29;20498;-70
2022/12/10 11:20:26;;;;;;;43.03;19.83;;;;;;;3.34;63.25;98198.25;5088286;29;19923;-70
2022/12/10 11:23:20;;;;;;;47.15;20.55;;;;;;;3.54;64.03;98146.91;5090963;29;20122;-70
2022/12/10 11:26:33;;;;;;;49.58;21.85;;;;;;;3.82;64.01;98202.44;5073075;29;20111;-71
2022/12/10 11:30:01;;;;;;;43.95;20.92;;;;;;;3.46;65.16;98180.78;5065847;29;20052;-75
2022/12/10 11:32:52;;;;;;;47.03;21.38;;;;;;;3.18;66.53;98208.22;5078268;29;20503;-70
2022/12/10 11:35:52;;;;;;;46.63;21.75;;;;;;;3.82;65.08;98211.13;5083446;29;20070;-71
2022/12/10 11:38:47;;;;;;;43.88;21.20;;;;;;;3.42;64.72;98202.94;5090911;29;20515;-70
2022/12/10 11:42:04;;;;;;;48.65;21.85;;;;;;;3.90;65.34;98205.28;5084413;29;20047;-70
2022/12/10 11:45:06;;;;;;;57.47;23.75;;;;;;;3.99;64.51;98205.38;5081612;29;20243;-71
2022/12/10 11:48:22;;;;;;;47.05;21.33;;;;;;;4.48;63.69;98206.69;5079740;29;20541;-71
2022/12/10 11:51:24;;;;;;;46.55;21.45;;;;;;;3.45;66.62;98205.31;5079515;29;20044;-71
2022/12/10 11:54:51;;;;;;;47.08;19.83;;;;;;;4.14;63.67;98211.22;5080558;29;20430;-71
2022/12/10 11:58:24;;;;;;;42.05;20.05;;;;;;;4.51;63.23;98215.31;5078483;29;20052;-70
2022/12/10 12:01:32;;;;;;;43.15;19.08;;;;;;;4.50;61.33;98210.97;5083874;29;20080;-71
2022/12/10 12:04:52;;;;;;;40.15;20.05;;;;;;;4.31;61.96;98211.66;5083712;29;20052;-71
2022/12/10 12:07:55;;;;;;;43.08;19.13;;;;;;;4.13;62.32;98213.94;5066412;29;20059;-71
2022/12/10 12:10:45;;;;;;;37.70;19.15;;;;;;;3.85;62.78;98204.81;5083089;29;20051;-71
2022/12/10 12:13:54;;;;;;;44.85;19.67;;;;;;;4.52;62.52;98206.47;5082142;29;20507;-71
2022/12/10 12:16:51;;;;;;;46.25;21.20;;;;;;;4.42;61.66;98203.75;5083058;29;20058;-71
2022/12/10 12:19:50;;;;;;;40.15;18.95;;;;;;;4.10;62.73;98207.16;5082894;29;20062;-71
2022/12/10 12:22:45;;;;;;;39.20;19.80;;;;;;;3.88;62.59;98212.47;5081421;29;20048;-70
2022/12/10 12:25:40;;;;;;;43.78;20.05;;;;;;;3.91;63.08;98217.47;5076784;29;20463;-71
2022/12/10 12:28:48;;;;;;;42.30;20.55;;;;;;;3.94;61.93;98219.81;5079643;29;20063;-71
2022/12/10 12:31:43;;;;;;;42.20;19.88;;;;;;;3.79;62.80;98194.81;5080370;29;20422;-70
2022/12/10 12:34:52;;;;;;;42.58;19.95;;;;;;;4.07;63.15;98211.81;5087276;29;20150;-69
2022/12/10 12:38:06;;;;;;;46.05;20.77;;;;;;;4.28;61.41;98214.53;5087322;29;20075;-67
2022/12/10 12:41:17;;;;;;;42.05;20.73;;;;;;;4.35;62.08;98228.81;5082866;29;20578;-67
2022/12/10 12:44:29;;;;;;;43.53;21.48;;;;;;;3.91;62.95;98230.56;5088031;29;20051;-68
2022/12/10 12:47:41;;;;;;;46.50;21.63;;;;;;;4.36;61.17;98225.22;5082057;29;20131;-69
2022/12/10 12:50:51;;;;;;;58.95;23.70;;;;;;;3.58;61.93;98226.19;5082811;29;20055;-69
2022/12/10 12:53:40;;;;;;;43.45;19.65;;;;;;;3.58;62.93;98232.25;5085121;29;20104;-68
2022/12/10 12:57:00;;;;;;;40.97;20.10;;;;;;;3.33;63.14;98227.22;5074903;29;20052;-69
2022/12/10 13:00:03;;;;;;;42.45;19.27;;;;;;;4.10;62.88;98238.63;5059871;29;20052;-67
2022/12/10 13:03:18;;;;;;;46.15;21.40;;;;;;;4.18;61.69;98225.75;5084693;29;20060;-69
2022/12/10 13:06:14;;;;;;;44.60;20.83;;;;;;;4.33;61.66;98242.06;5084942;29;20066;-68
2022/12/10 13:09:15;;;;;;;39.88;18.00;;;;;;;4.21;60.50;98243.88;5084137;29;20115;-68
2022/12/10 13:12:15;;;;;;;39.13;19.38;;;;;;;3.65;62.38;98254.41;5089073;29;20043;-71
2022/12/10 13:15:19;;;;;;;41.78;18.05;;;;;;;4.00;60.94;98245.56;5087753;29;20126;-70
2022/12/10 13:18:13;;;;;;;40.88;19.45;;;;;;;4.31;60.54;98267.59;5091545;29;20198;-71
2022/12/10 13:21:30;;;;;;;45.17;21.42;;;;;;;4.13;60.72;98246.25;5086719;29;20055;-70
2022/12/10 13:25:00;;;;;;;39.13;19.25;;;;;;;4.37;60.49;98263.63;5089453;29;20101;-68
2022/12/10 13:27:57;;;;;;;40.90;19.25;;;;;;;4.08;60.28;98261.56;5070875;29;20059;-69
2022/12/10 13:31:27;;;;;;;39.85;18.02;;;;;;;4.47;60.41;98261.97;5086010;29;20084;-67
2022/12/10 13:34:29;;;;;;;39.25;18.35;;;;;;;4.41;60.24;98268.53;5047886;29;20096;-71
2022/12/10 13:37:31;;;;;;;38.00;18.25;;;;;;;3.32;62.88;98275.34;5086287;29;20047;-70
2022/12/10 13:44:23;;;;;;;50.63;20.95;;;;;;;3.82;61.91;98270.63;5089997;29;20078;-70
2022/12/10 13:46:57;;;;;;;37.83;18.48;;;;;;;4.09;62.73;98281.56;5083239;29;20075;-71
2022/12/10 13:49:55;;;;;;;39.33;18.13;;;;;;;4.04;62.24;98283.75;5083557;29;20058;-72
2022/12/10 13:53:09;;;;;;;39.80;18.15;;;;;;;3.82;62.64;98291.59;5086746;29;20130;-71
2022/12/10 13:56:18;;;;;;;38.80;18.95;;;;;;;3.69;65.10;98297.78;5073369;29;20075;-72